Terminal Aerodrome Forecast
Issued by NWS St Louis, MO

Home | Current Version | Previous Version | Graphics & Text | Print | Product List | Glossary On
Versions: 1 2 3 4 5 6 7 8 9 10 11 12 13 14 15 16 17 18 19 20 21 22 23 24 25 26
000
FTUS43 KLSX 240100 AAA
TAFSTL
TAF AMD
KSTL 240125Z 2401/2506 17005KT P6SM BKN030
      TEMPO 2409/2413 5SM BR BKN015
     FM241500 24006KT P6SM FEW015 SCT030
     FM242100 21007KT P6SM FEW040 SCT250
     FM250000 18005KT P6SM SCT250=

USA.gov is the U.S. government's official web portal to all federal, state and local government web resources and services.